sensor_id;sensor_type;location;lat;lon;timestamp;temperature;humidity
4699;DHT22;33708;49.466;11.176;2023-03-01T00:01:07;-2.60;1.00
4699;DHT22;33708;49.466;11.176;2023-03-01T00:03:34;-2.60;1.00
4699;DHT22;33708;49.466;11.176;2023-03-01T00:06:00;-2.60;1.00
4699;DHT22;33708;49.466;11.176;2023-03-01T00:08:26;-2.60;1.00
4699;DHT22;33708;49.466;11.176;2023-03-01T00:11:23;-2.50;1.00
4699;DHT22;33708;49.466;11.176;2023-03-01T00:13:50;-2.50;1.00
4699;DHT22;33708;49.466;11.176;2023-03-01T00:16:21;-2.50;1.00
4699;DHT22;33708;49.466;11.176;2023-03-01T00:18:48;-2.40;1.00
4699;DHT22;33708;49.466;11.176;2023-03-01T00:21:13;-2.40;1.00
4699;DHT22;33708;49.466;11.176;2023-03-01T00:23:39;-2.20;1.00
4699;DHT22;33708;49.466;11.176;2023-03-01T00:26:07;-2.40;1.00
4699;DHT22;33708;49.466;11.176;2023-03-01T00:28:33;-2.30;1.00
4699;DHT22;33708;49.466;11.176;2023-03-01T00:31:06;-2.30;1.00
4699;DHT22;33708;49.466;11.176;2023-03-01T00:33:33;-2.30;1.00
4699;DHT22;33708;49.466;11.176;2023-03-01T00:35:59;-2.30;1.00
4699;DHT22;33708;49.466;11.176;2023-03-01T00:38:25;-2.20;1.00
4699;DHT22;33708;49.466;11.176;2023-03-01T00:40:51;-2.10;1.00
4699;DHT22;33708;49.466;11.176;2023-03-01T00:43:16;-2.20;1.00
4699;DHT22;33708;49.466;11.176;2023-03-01T00:45:42;-2.10;1.00
4699;DHT22;33708;49.466;11.176;2023-03-01T00:48:07;-2.10;1.00
4699;DHT22;33708;49.466;11.176;2023-03-01T00:50:33;-2.20;1.00
4699;DHT22;33708;49.466;11.176;2023-03-01T00:52:58;-2.20;1.00
4699;DHT22;33708;49.466;11.176;2023-03-01T00:55:25;-2.10;1.00
4699;DHT22;33708;49.466;11.176;2023-03-01T00:57:51;-2.10;1.00
4699;DHT22;33708;49.466;11.176;2023-03-01T01:00:17;-2.20;1.00
4699;DHT22;33708;49.466;11.176;2023-03-01T01:02:43;-2.10;1.00
4699;DHT22;33708;49.466;11.176;2023-03-01T01:05:09;-2.10;1.00
4699;DHT22;33708;49.466;11.176;2023-03-01T01:07:34;-2.20;1.00
4699;DHT22;33708;49.466;11.176;2023-03-01T01:10:00;-2.10;1.00
4699;DHT22;33708;49.466;11.176;2023-03-01T01:12:26;-2.20;1.00
4699;DHT22;33708;49.466;11.176;2023-03-01T01:14:52;-2.10;1.00
4699;DHT22;33708;49.466;11.176;2023-03-01T01:17:18;-2.10;1.00
4699;DHT22;33708;49.466;11.176;2023-03-01T01:19:44;-2.10;1.00
4699;DHT22;33708;49.466;11.176;2023-03-01T01:22:10;-2.10;1.00
4699;DHT22;33708;49.466;11.176;2023-03-01T01:24:36;-2.00;1.00
4699;DHT22;33708;49.466;11.176;2023-03-01T01:27:01;-2.00;1.00
4699;DHT22;33708;49.466;11.176;2023-03-01T01:29:27;-1.90;1.00
4699;DHT22;33708;49.466;11.176;2023-03-01T01:31:53;-2.00;1.00
4699;DHT22;33708;49.466;11.176;2023-03-01T01:34:20;-2.00;1.00
4699;DHT22;33708;49.466;11.176;2023-03-01T01:36:51;-2.00;1.00
4699;DHT22;33708;49.466;11.176;2023-03-01T01:39:19;-2.00;1.00
4699;DHT22;33708;49.466;11.176;2023-03-01T01:41:46;-1.80;1.00
4699;DHT22;33708;49.466;11.176;2023-03-01T01:44:15;-2.00;1.00
4699;DHT22;33708;49.466;11.176;2023-03-01T01:47:02;-2.00;1.00
4699;DHT22;33708;49.466;11.176;2023-03-01T01:52:37;-2.10;1.00
4699;DHT22;33708;49.466;11.176;2023-03-01T01:55:08;-2.10;1.00
4699;DHT22;33708;49.466;11.176;2023-03-01T01:57:39;-2.20;1.00
4699;DHT22;33708;49.466;11.176;2023-03-01T02:00:18;-2.20;1.00
4699;DHT22;33708;49.466;11.176;2023-03-01T02:02:46;-2.30;1.00
4699;DHT22;33708;49.466;11.176;2023-03-01T02:05:20;-2.30;1.00
4699;DHT22;33708;49.466;11.176;2023-03-01T02:07:46;-2.30;1.00
4699;DHT22;33708;49.466;11.176;2023-03-01T02:10:13;-2.30;1.00
4699;DHT22;33708;49.466;11.176;2023-03-01T02:12:39;-2.20;1.00
4699;DHT22;33708;49.466;11.176;2023-03-01T02:15:05;-2.40;1.00
4699;DHT22;33708;49.466;11.176;2023-03-01T02:17:31;-2.10;1.00
4699;DHT22;33708;49.466;11.176;2023-03-01T02:20:10;-2.10;1.00
4699;DHT22;33708;49.466;11.176;2023-03-01T02:22:39;-2.10;1.00
4699;DHT22;33708;49.466;11.176;2023-03-01T02:28:10;-2.10;1.00
4699;DHT22;33708;49.466;11.176;2023-03-01T02:30:36;-2.00;1.00
4699;DHT22;33708;49.466;11.176;2023-03-01T02:33:03;-2.00;1.00
4699;DHT22;33708;49.466;11.176;2023-03-01T02:35:35;-2.10;1.00
4699;DHT22;33708;49.466;11.176;2023-03-01T02:38:01;-2.10;1.00
4699;DHT22;33708;49.466;11.176;2023-03-01T02:40:33;-2.10;1.00
4699;DHT22;33708;49.466;11.176;2023-03-01T02:42:59;-2.10;1.00
4699;DHT22;33708;49.466;11.176;2023-03-01T02:45:26;-2.10;1.00
4699;DHT22;33708;49.466;11.176;2023-03-01T02:47:56;-2.10;1.00
4699;DHT22;33708;49.466;11.176;2023-03-01T02:50:32;-2.10;1.00
4699;DHT22;33708;49.466;11.176;2023-03-01T02:53:08;-2.10;1.00
4699;DHT22;33708;49.466;11.176;2023-03-01T02:55:36;-2.10;1.00
4699;DHT22;33708;49.466;11.176;2023-03-01T02:58:03;-2.10;1.00
4699;DHT22;33708;49.466;11.176;2023-03-01T03:00:36;-2.20;1.00
4699;DHT22;33708;49.466;11.176;2023-03-01T03:03:05;-2.30;1.00
4699;DHT22;33708;49.466;11.176;2023-03-01T03:05:33;-2.30;1.00
4699;DHT22;33708;49.466;11.176;2023-03-01T03:08:01;-2.30;1.00
4699;DHT22;33708;49.466;11.176;2023-03-01T03:10:30;-2.30;1.00
4699;DHT22;33708;49.466;11.176;2023-03-01T03:13:02;-2.40;1.00
4699;DHT22;33708;49.466;11.176;2023-03-01T03:15:29;-2.30;1.00
4699;DHT22;33708;49.466;11.176;2023-03-01T03:17:55;-2.30;1.00
4699;DHT22;33708;49.466;11.176;2023-03-01T03:20:24;-2.40;1.00
4699;DHT22;33708;49.466;11.176;2023-03-01T03:22:52;-2.50;1.00
4699;DHT22;33708;49.466;11.176;2023-03-01T03:25:20;-2.40;1.00
4699;DHT22;33708;49.466;11.176;2023-03-01T03:27:47;-2.40;1.00
4699;DHT22;33708;49.466;11.176;2023-03-01T03:30:16;-2.40;1.00
4699;DHT22;33708;49.466;11.176;2023-03-01T03:32:44;-2.30;1.00
4699;DHT22;33708;49.466;11.176;2023-03-01T03:36:00;-2.40;1.00
4699;DHT22;33708;49.466;11.176;2023-03-01T03:38:09;-2.40;1.00
4699;DHT22;33708;49.466;11.176;2023-03-01T03:40:45;-2.50;1.00
4699;DHT22;33708;49.466;11.176;2023-03-01T03:43:19;-2.50;1.00
4699;DHT22;33708;49.466;11.176;2023-03-01T03:45:47;-2.60;1.00
4699;DHT22;33708;49.466;11.176;2023-03-01T03:48:13;-2.60;1.00
4699;DHT22;33708;49.466;11.176;2023-03-01T03:50:40;-2.70;1.00
4699;DHT22;33708;49.466;11.176;2023-03-01T03:53:09;-2.80;1.00
4699;DHT22;33708;49.466;11.176;2023-03-01T03:55:36;-2.70;1.00
4699;DHT22;33708;49.466;11.176;2023-03-01T03:58:06;-2.80;1.00
4699;DHT22;33708;49.466;11.176;2023-03-01T04:00:33;-2.70;1.00
4699;DHT22;33708;49.466;11.176;2023-03-01T04:02:59;-2.80;1.00
4699;DHT22;33708;49.466;11.176;2023-03-01T04:05:26;-2.90;1.00
4699;DHT22;33708;49.466;11.176;2023-03-01T04:07:52;-2.90;1.00
4699;DHT22;33708;49.466;11.176;2023-03-01T04:10:27;-2.90;1.00
4699;DHT22;33708;49.466;11.176;2023-03-01T04:12:53;-2.90;1.00
4699;DHT22;33708;49.466;11.176;2023-03-01T04:15:21;-3.00;1.00
4699;DHT22;33708;49.466;11.176;2023-03-01T04:17:50;-3.10;1.00
4699;DHT22;33708;49.466;11.176;2023-03-01T04:20:19;-3.10;1.00
4699;DHT22;33708;49.466;11.176;2023-03-01T04:22:58;-3.10;1.00
4699;DHT22;33708;49.466;11.176;2023-03-01T04:25:24;-3.00;1.00
4699;DHT22;33708;49.466;11.176;2023-03-01T04:27:50;-3.10;1.00
4699;DHT22;33708;49.466;11.176;2023-03-01T04:30:16;-3.10;1.00
4699;DHT22;33708;49.466;11.176;2023-03-01T04:32:42;-3.10;1.00
4699;DHT22;33708;49.466;11.176;2023-03-01T04:35:07;-3.20;1.00
4699;DHT22;33708;49.466;11.176;2023-03-01T04:37:34;-3.10;1.00
4699;DHT22;33708;49.466;11.176;2023-03-01T04:40:01;-3.20;1.00
4699;DHT22;33708;49.466;11.176;2023-03-01T04:42:26;-3.20;1.00
4699;DHT22;33708;49.466;11.176;2023-03-01T04:44:52;-3.20;1.00
4699;DHT22;33708;49.466;11.176;2023-03-01T04:47:17;-3.20;1.00
4699;DHT22;33708;49.466;11.176;2023-03-01T04:49:43;-3.20;1.00
4699;DHT22;33708;49.466;11.176;2023-03-01T04:52:09;-3.30;1.00
4699;DHT22;33708;49.466;11.176;2023-03-01T04:54:35;-3.30;1.00
4699;DHT22;33708;49.466;11.176;2023-03-01T04:57:02;-3.20;1.00
4699;DHT22;33708;49.466;11.176;2023-03-01T04:59:28;-3.30;1.00
4699;DHT22;33708;49.466;11.176;2023-03-01T05:01:55;-3.20;1.00
4699;DHT22;33708;49.466;11.176;2023-03-01T05:04:22;-3.30;1.00
4699;DHT22;33708;49.466;11.176;2023-03-01T05:06:48;-3.30;1.00
4699;DHT22;33708;49.466;11.176;2023-03-01T05:09:14;-3.20;1.00
4699;DHT22;33708;49.466;11.176;2023-03-01T05:11:39;-3.30;1.00
4699;DHT22;33708;49.466;11.176;2023-03-01T05:14:06;-3.30;1.00
4699;DHT22;33708;49.466;11.176;2023-03-01T05:16:33;-3.30;1.00
4699;DHT22;33708;49.466;11.176;2023-03-01T05:18:59;-3.30;1.00
4699;DHT22;33708;49.466;11.176;2023-03-01T05:21:25;-3.30;1.00
4699;DHT22;33708;49.466;11.176;2023-03-01T05:23:51;-3.40;1.00
4699;DHT22;33708;49.466;11.176;2023-03-01T05:26:18;-3.40;1.00
4699;DHT22;33708;49.466;11.176;2023-03-01T05:28:44;-3.40;1.00
4699;DHT22;33708;49.466;11.176;2023-03-01T05:31:10;-3.30;1.00
4699;DHT22;33708;49.466;11.176;2023-03-01T05:33:40;-3.30;1.00
4699;DHT22;33708;49.466;11.176;2023-03-01T05:36:09;-3.30;1.00
4699;DHT22;33708;49.466;11.176;2023-03-01T05:38:35;-3.30;1.00
4699;DHT22;33708;49.466;11.176;2023-03-01T05:41:01;-3.40;1.00
4699;DHT22;33708;49.466;11.176;2023-03-01T05:43:30;-3.30;1.00
4699;DHT22;33708;49.466;11.176;2023-03-01T05:45:57;-3.50;1.00
4699;DHT22;33708;49.466;11.176;2023-03-01T05:48:23;-3.50;1.00
4699;DHT22;33708;49.466;11.176;2023-03-01T05:50:49;-3.40;1.00
4699;DHT22;33708;49.466;11.176;2023-03-01T05:53:19;-3.30;1.00
4699;DHT22;33708;49.466;11.176;2023-03-01T05:55:47;-3.40;1.00
4699;DHT22;33708;49.466;11.176;2023-03-01T05:58:19;-3.30;1.00
4699;DHT22;33708;49.466;11.176;2023-03-01T06:00:47;-3.10;7.20
4699;DHT22;33708;49.466;11.176;2023-03-01T06:03:14;-2.90;16.10
4699;DHT22;33708;49.466;11.176;2023-03-01T06:05:40;-3.00;4.50
4699;DHT22;33708;49.466;11.176;2023-03-01T06:08:06;-3.00;1.00
4699;DHT22;33708;49.466;11.176;2023-03-01T06:10:32;-2.90;1.00
4699;DHT22;33708;49.466;11.176;2023-03-01T06:12:58;-2.80;5.30
4699;DHT22;33708;49.466;11.176;2023-03-01T06:15:24;-2.90;1.00
4699;DHT22;33708;49.466;11.176;2023-03-01T06:17:50;-2.90;1.00
4699;DHT22;33708;49.466;11.176;2023-03-01T06:20:19;-2.90;1.00
4699;DHT22;33708;49.466;11.176;2023-03-01T06:22:45;-2.70;1.00
4699;DHT22;33708;49.466;11.176;2023-03-01T06:25:13;-2.60;1.00
4699;DHT22;33708;49.466;11.176;2023-03-01T06:27:40;-2.40;1.00
4699;DHT22;33708;49.466;11.176;2023-03-01T06:30:06;-1.30;13.10
4699;DHT22;33708;49.466;11.176;2023-03-01T06:32:33;-0.50;12.50
4699;DHT22;33708;49.466;11.176;2023-03-01T06:34:59;-0.50;1.00
4699;DHT22;33708;49.466;11.176;2023-03-01T06:37:28;-0.70;1.00
4699;DHT22;33708;49.466;11.176;2023-03-01T06:39:53;-1.00;1.00
4699;DHT22;33708;49.466;11.176;2023-03-01T06:42:19;-0.10;1.00
4699;DHT22;33708;49.466;11.176;2023-03-01T06:44:44;0.90;1.00
4699;DHT22;33708;49.466;11.176;2023-03-01T06:47:11;2.20;2.00
4699;DHT22;33708;49.466;11.176;2023-03-01T06:49:36;4.10;19.00
4699;DHT22;33708;49.466;11.176;2023-03-01T06:52:02;4.70;2.70
4699;DHT22;33708;49.466;11.176;2023-03-01T06:54:28;5.10;1.00
4699;DHT22;33708;49.466;11.176;2023-03-01T06:56:53;5.00;1.00
4699;DHT22;33708;49.466;11.176;2023-03-01T06:59:19;5.20;1.00
4699;DHT22;33708;49.466;11.176;2023-03-01T07:01:45;6.30;1.00
4699;DHT22;33708;49.466;11.176;2023-03-01T07:04:12;7.40;1.00
4699;DHT22;33708;49.466;11.176;2023-03-01T07:06:38;7.20;1.00
4699;DHT22;33708;49.466;11.176;2023-03-01T07:09:03;7.30;1.00
4699;DHT22;33708;49.466;11.176;2023-03-01T07:11:29;6.70;1.00
4699;DHT22;33708;49.466;11.176;2023-03-01T07:13:54;6.80;1.00
4699;DHT22;33708;49.466;11.176;2023-03-01T07:16:21;7.80;1.00
4699;DHT22;33708;49.466;11.176;2023-03-01T07:18:47;6.80;1.00
4699;DHT22;33708;49.466;11.176;2023-03-01T07:21:14;8.00;1.00
4699;DHT22;33708;49.466;11.176;2023-03-01T07:23:40;8.60;1.00
4699;DHT22;33708;49.466;11.176;2023-03-01T07:26:07;10.10;1.00
4699;DHT22;33708;49.466;11.176;2023-03-01T07:28:32;7.60;1.00
4699;DHT22;33708;49.466;11.176;2023-03-01T07:31:04;9.20;1.00
4699;DHT22;33708;49.466;11.176;2023-03-01T07:33:29;7.10;1.00
4699;DHT22;33708;49.466;11.176;2023-03-01T07:35:57;7.00;1.00
4699;DHT22;33708;49.466;11.176;2023-03-01T07:38:23;7.20;1.00
4699;DHT22;33708;49.466;11.176;2023-03-01T07:40:49;7.20;1.00
4699;DHT22;33708;49.466;11.176;2023-03-01T07:43:14;6.10;1.00
4699;DHT22;33708;49.466;11.176;2023-03-01T07:45:40;7.80;1.00
4699;DHT22;33708;49.466;11.176;2023-03-01T07:48:06;7.00;1.00
4699;DHT22;33708;49.466;11.176;2023-03-01T07:50:31;7.50;1.00
4699;DHT22;33708;49.466;11.176;2023-03-01T07:52:57;9.10;1.00
4699;DHT22;33708;49.466;11.176;2023-03-01T07:55:22;8.50;1.00
4699;DHT22;33708;49.466;11.176;2023-03-01T07:57:48;8.20;1.00
4699;DHT22;33708;49.466;11.176;2023-03-01T08:00:14;8.40;1.00
4699;DHT22;33708;49.466;11.176;2023-03-01T08:02:40;7.50;1.00
4699;DHT22;33708;49.466;11.176;2023-03-01T08:05:07;8.80;1.00
4699;DHT22;33708;49.466;11.176;2023-03-01T08:07:34;7.90;1.00
4699;DHT22;33708;49.466;11.176;2023-03-01T08:09:59;8.50;1.00
4699;DHT22;33708;49.466;11.176;2023-03-01T08:12:25;8.60;1.00
4699;DHT22;33708;49.466;11.176;2023-03-01T08:14:52;8.00;1.00
4699;DHT22;33708;49.466;11.176;2023-03-01T08:17:18;7.60;1.00
4699;DHT22;33708;49.466;11.176;2023-03-01T08:19:44;8.00;1.00
4699;DHT22;33708;49.466;11.176;2023-03-01T08:22:10;7.70;1.00
4699;DHT22;33708;49.466;11.176;2023-03-01T08:24:36;7.80;1.00
4699;DHT22;33708;49.466;11.176;2023-03-01T08:27:01;7.80;1.00
4699;DHT22;33708;49.466;11.176;2023-03-01T08:29:29;7.30;1.00
4699;DHT22;33708;49.466;11.176;2023-03-01T08:31:55;7.50;1.00
4699;DHT22;33708;49.466;11.176;2023-03-01T08:34:21;7.80;1.00
4699;DHT22;33708;49.466;11.176;2023-03-01T08:36:47;7.40;1.00
4699;DHT22;33708;49.466;11.176;2023-03-01T08:39:15;7.90;1.00
4699;DHT22;33708;49.466;11.176;2023-03-01T08:41:41;9.30;1.00
4699;DHT22;33708;49.466;11.176;2023-03-01T08:44:07;8.60;1.00
4699;DHT22;33708;49.466;11.176;2023-03-01T08:46:38;9.00;1.00
4699;DHT22;33708;49.466;11.176;2023-03-01T08:49:11;7.90;1.00
4699;DHT22;33708;49.466;11.176;2023-03-01T08:51:37;8.30;1.00
4699;DHT22;33708;49.466;11.176;2023-03-01T08:54:05;8.40;1.00
4699;DHT22;33708;49.466;11.176;2023-03-01T08:56:31;8.40;1.00
4699;DHT22;33708;49.466;11.176;2023-03-01T08:58:56;9.10;1.00
4699;DHT22;33708;49.466;11.176;2023-03-01T09:01:22;9.00;1.00
4699;DHT22;33708;49.466;11.176;2023-03-01T09:03:47;9.00;1.00
4699;DHT22;33708;49.466;11.176;2023-03-01T09:06:14;9.60;1.00
4699;DHT22;33708;49.466;11.176;2023-03-01T09:08:46;9.00;1.00
4699;DHT22;33708;49.466;11.176;2023-03-01T09:11:14;9.70;1.00
4699;DHT22;33708;49.466;11.176;2023-03-01T09:13:41;10.20;1.00
4699;DHT22;33708;49.466;11.176;2023-03-01T09:16:08;9.50;1.00
4699;DHT22;33708;49.466;11.176;2023-03-01T09:18:34;8.60;1.00
4699;DHT22;33708;49.466;11.176;2023-03-01T09:21:12;9.00;1.00
4699;DHT22;33708;49.466;11.176;2023-03-01T09:23:41;9.60;1.00
4699;DHT22;33708;49.466;11.176;2023-03-01T09:26:20;9.30;1.00
4699;DHT22;33708;49.466;11.176;2023-03-01T09:28:48;9.60;1.00
4699;DHT22;33708;49.466;11.176;2023-03-01T09:31:15;8.50;1.00
4699;DHT22;33708;49.466;11.176;2023-03-01T09:33:42;8.30;1.00
4699;DHT22;33708;49.466;11.176;2023-03-01T09:36:12;7.60;1.00
4699;DHT22;33708;49.466;11.176;2023-03-01T09:38:38;8.10;1.00
4699;DHT22;33708;49.466;11.176;2023-03-01T09:41:11;6.90;1.00
4699;DHT22;33708;49.466;11.176;2023-03-01T09:46:42;5.30;1.00
4699;DHT22;33708;49.466;11.176;2023-03-01T09:49:26;5.10;1.00
4699;DHT22;33708;49.466;11.176;2023-03-01T09:52:09;4.90;1.00
4699;DHT22;33708;49.466;11.176;2023-03-01T09:54:38;4.70;1.00
4699;DHT22;33708;49.466;11.176;2023-03-01T10:02:49;4.20;1.00
4699;DHT22;33708;49.466;11.176;2023-03-01T10:06:04;4.40;1.00
4699;DHT22;33708;49.466;11.176;2023-03-01T10:10:44;4.40;1.00
4699;DHT22;33708;49.466;11.176;2023-03-01T10:13:19;4.20;1.00
4699;DHT22;33708;49.466;11.176;2023-03-01T10:15:51;4.30;1.00
4699;DHT22;33708;49.466;11.176;2023-03-01T10:18:22;4.40;1.00
4699;DHT22;33708;49.466;11.176;2023-03-01T10:21:02;4.40;1.00
4699;DHT22;33708;49.466;11.176;2023-03-01T10:23:31;4.40;1.00
4699;DHT22;33708;49.466;11.176;2023-03-01T10:31:43;4.60;1.00
4699;DHT22;33708;49.466;11.176;2023-03-01T10:34:18;4.60;1.00
4699;DHT22;33708;49.466;11.176;2023-03-01T10:36:48;4.90;1.00
4699;DHT22;33708;49.466;11.176;2023-03-01T10:39:19;5.10;1.00
4699;DHT22;33708;49.466;11.176;2023-03-01T10:42:13;5.00;1.00
4699;DHT22;33708;49.466;11.176;2023-03-01T10:44:46;4.80;1.00
4699;DHT22;33708;49.466;11.176;2023-03-01T10:47:19;5.10;1.00
4699;DHT22;33708;49.466;11.176;2023-03-01T10:50:08;5.00;1.00
4699;DHT22;33708;49.466;11.176;2023-03-01T10:52:59;5.00;1.00
4699;DHT22;33708;49.466;11.176;2023-03-01T10:55:37;5.20;1.00
4699;DHT22;33708;49.466;11.176;2023-03-01T11:00:53;5.10;1.00
4699;DHT22;33708;49.466;11.176;2023-03-01T11:03:34;5.10;1.00
4699;DHT22;33708;49.466;11.176;2023-03-01T11:08:46;5.20;1.00
4699;DHT22;33708;49.466;11.176;2023-03-01T11:13:56;5.60;1.00
4699;DHT22;33708;49.466;11.176;2023-03-01T11:16:26;5.60;1.00
4699;DHT22;33708;49.466;11.176;2023-03-01T11:19:01;5.40;1.00
4699;DHT22;33708;49.466;11.176;2023-03-01T11:21:31;5.50;1.00
4699;DHT22;33708;49.466;11.176;2023-03-01T11:24:00;5.80;1.00
4699;DHT22;33708;49.466;11.176;2023-03-01T11:26:28;6.10;1.00
4699;DHT22;33708;49.466;11.176;2023-03-01T11:28:58;6.20;1.00
4699;DHT22;33708;49.466;11.176;2023-03-01T11:31:26;6.30;1.00
4699;DHT22;33708;49.466;11.176;2023-03-01T11:33:57;6.20;1.00
4699;DHT22;33708;49.466;11.176;2023-03-01T11:38:57;6.30;1.00
4699;DHT22;33708;49.466;11.176;2023-03-01T11:41:31;6.70;1.00
4699;DHT22;33708;49.466;11.176;2023-03-01T11:44:12;6.70;1.00
4699;DHT22;33708;49.466;11.176;2023-03-01T12:03:22;6.80;1.00
4699;DHT22;33708;49.466;11.176;2023-03-01T12:06:09;7.00;1.00
4699;DHT22;33708;49.466;11.176;2023-03-01T12:09:41;7.40;1.00
4699;DHT22;33708;49.466;11.176;2023-03-01T12:11:50;7.20;1.00
4699;DHT22;33708;49.466;11.176;2023-03-01T12:18:21;7.70;1.00
4699;DHT22;33708;49.466;11.176;2023-03-01T12:20:49;7.50;1.00
4699;DHT22;33708;49.466;11.176;2023-03-01T12:26:32;7.70;1.00
4699;DHT22;33708;49.466;11.176;2023-03-01T12:31:43;7.60;1.00
4699;DHT22;33708;49.466;11.176;2023-03-01T12:37:50;7.60;1.00
4699;DHT22;33708;49.466;11.176;2023-03-01T12:43:56;7.40;1.00
4699;DHT22;33708;49.466;11.176;2023-03-01T12:49:09;7.40;1.00
4699;DHT22;33708;49.466;11.176;2023-03-01T12:51:38;7.60;1.00
4699;DHT22;33708;49.466;11.176;2023-03-01T12:54:15;7.40;1.00
4699;DHT22;33708;49.466;11.176;2023-03-01T12:56:41;7.50;1.00
4699;DHT22;33708;49.466;11.176;2023-03-01T12:59:22;7.70;1.00
4699;DHT22;33708;49.466;11.176;2023-03-01T13:05:06;7.60;1.00
4699;DHT22;33708;49.466;11.176;2023-03-01T13:07:49;7.70;1.00
4699;DHT22;33708;49.466;11.176;2023-03-01T13:17:53;8.10;1.00
4699;DHT22;33708;49.466;11.176;2023-03-01T13:28:48;7.80;1.00
4699;DHT22;33708;49.466;11.176;2023-03-01T13:33:52;7.90;1.00
4699;DHT22;33708;49.466;11.176;2023-03-01T13:39:33;8.10;1.00
4699;DHT22;33708;49.466;11.176;2023-03-01T13:42:25;8.20;1.00
4699;DHT22;33708;49.466;11.176;2023-03-01T13:44:49;8.20;1.00
4699;DHT22;33708;49.466;11.176;2023-03-01T13:47:17;8.30;1.00
4699;DHT22;33708;49.466;11.176;2023-03-01T13:49:47;8.50;1.00
4699;DHT22;33708;49.466;11.176;2023-03-01T13:55:03;8.30;1.00
4699;DHT22;33708;49.466;11.176;2023-03-01T13:57:37;8.40;1.00
4699;DHT22;33708;49.466;11.176;2023-03-01T14:00:05;8.50;1.00
4699;DHT22;33708;49.466;11.176;2023-03-01T14:02:31;8.60;1.00
4699;DHT22;33708;49.466;11.176;2023-03-01T14:05:00;8.60;1.00
4699;DHT22;33708;49.466;11.176;2023-03-01T14:07:27;8.80;1.00
4699;DHT22;33708;49.466;11.176;2023-03-01T14:10:02;8.60;1.00
4699;DHT22;33708;49.466;11.176;2023-03-01T14:18:08;8.40;1.00
4699;DHT22;33708;49.466;11.176;2023-03-01T14:20:42;8.70;1.00
4699;DHT22;33708;49.466;11.176;2023-03-01T14:23:14;8.80;1.00
4699;DHT22;33708;49.466;11.176;2023-03-01T14:25:54;8.80;1.00
4699;DHT22;33708;49.466;11.176;2023-03-01T14:28:23;8.70;1.00
4699;DHT22;33708;49.466;11.176;2023-03-01T14:31:00;8.60;1.00
4699;DHT22;33708;49.466;11.176;2023-03-01T14:33:30;8.70;1.00
4699;DHT22;33708;49.466;11.176;2023-03-01T14:36:06;8.80;1.00
4699;DHT22;33708;49.466;11.176;2023-03-01T14:38:45;8.80;1.00
4699;DHT22;33708;49.466;11.176;2023-03-01T14:41:14;8.70;1.00
4699;DHT22;33708;49.466;11.176;2023-03-01T14:43:44;8.70;1.00
4699;DHT22;33708;49.466;11.176;2023-03-01T14:46:37;8.50;1.00
4699;DHT22;33708;49.466;11.176;2023-03-01T14:49:09;8.20;1.00
4699;DHT22;33708;49.466;11.176;2023-03-01T14:51:38;8.20;1.00
4699;DHT22;33708;49.466;11.176;2023-03-01T14:54:16;8.30;1.00
4699;DHT22;33708;49.466;11.176;2023-03-01T14:56:45;8.30;1.00
4699;DHT22;33708;49.466;11.176;2023-03-01T14:59:11;8.40;1.00
4699;DHT22;33708;49.466;11.176;2023-03-01T15:01:37;8.20;1.00
4699;DHT22;33708;49.466;11.176;2023-03-01T15:04:04;8.30;1.00
4699;DHT22;33708;49.466;11.176;2023-03-01T15:06:30;8.30;1.00
4699;DHT22;33708;49.466;11.176;2023-03-01T15:08:56;8.30;1.00
4699;DHT22;33708;49.466;11.176;2023-03-01T15:11:28;8.30;1.00
4699;DHT22;33708;49.466;11.176;2023-03-01T15:13:54;8.20;1.00
4699;DHT22;33708;49.466;11.176;2023-03-01T15:16:29;8.20;1.00
4699;DHT22;33708;49.466;11.176;2023-03-01T15:18:59;8.20;1.00
4699;DHT22;33708;49.466;11.176;2023-03-01T15:21:29;8.00;1.00
4699;DHT22;33708;49.466;11.176;2023-03-01T15:26:50;8.20;1.00
4699;DHT22;33708;49.466;11.176;2023-03-01T15:29:21;8.10;1.00
4699;DHT22;33708;49.466;11.176;2023-03-01T15:34:51;8.00;1.00
4699;DHT22;33708;49.466;11.176;2023-03-01T15:37:45;7.90;1.00
4699;DHT22;33708;49.466;11.176;2023-03-01T15:40:25;7.80;1.00
4699;DHT22;33708;49.466;11.176;2023-03-01T15:43:00;7.80;1.00
4699;DHT22;33708;49.466;11.176;2023-03-01T15:45:28;7.80;1.00
4699;DHT22;33708;49.466;11.176;2023-03-01T15:48:02;7.90;1.00
4699;DHT22;33708;49.466;11.176;2023-03-01T15:50:34;7.60;1.00
4699;DHT22;33708;49.466;11.176;2023-03-01T15:53:01;7.60;1.00
4699;DHT22;33708;49.466;11.176;2023-03-01T15:55:31;7.50;1.00
4699;DHT22;33708;49.466;11.176;2023-03-01T15:58:12;7.50;1.00
4699;DHT22;33708;49.466;11.176;2023-03-01T16:00:38;7.40;1.00
4699;DHT22;33708;49.466;11.176;2023-03-01T16:03:05;7.40;1.00
4699;DHT22;33708;49.466;11.176;2023-03-01T16:05:33;7.30;1.00
4699;DHT22;33708;49.466;11.176;2023-03-01T16:08:00;7.20;1.00
4699;DHT22;33708;49.466;11.176;2023-03-01T16:10:26;7.20;1.00
4699;DHT22;33708;49.466;11.176;2023-03-01T16:12:52;7.00;1.00
4699;DHT22;33708;49.466;11.176;2023-03-01T16:15:30;7.10;1.00
4699;DHT22;33708;49.466;11.176;2023-03-01T16:17:55;7.00;1.00
4699;DHT22;33708;49.466;11.176;2023-03-01T16:20:24;6.90;1.00
4699;DHT22;33708;49.466;11.176;2023-03-01T16:22:49;7.30;1.00
4699;DHT22;33708;49.466;11.176;2023-03-01T16:25:17;6.60;1.00
4699;DHT22;33708;49.466;11.176;2023-03-01T16:27:48;6.60;1.00
4699;DHT22;33708;49.466;11.176;2023-03-01T16:30:17;6.50;1.00
4699;DHT22;33708;49.466;11.176;2023-03-01T16:32:45;6.50;1.00
4699;DHT22;33708;49.466;11.176;2023-03-01T16:35:12;6.50;1.00
4699;DHT22;33708;49.466;11.176;2023-03-01T16:37:39;6.50;1.00
4699;DHT22;33708;49.466;11.176;2023-03-01T16:40:05;6.40;1.00
4699;DHT22;33708;49.466;11.176;2023-03-01T16:42:36;6.30;1.00
4699;DHT22;33708;49.466;11.176;2023-03-01T16:45:02;6.20;1.00
4699;DHT22;33708;49.466;11.176;2023-03-01T16:47:28;6.00;1.00
4699;DHT22;33708;49.466;11.176;2023-03-01T16:49:54;5.90;1.00
4699;DHT22;33708;49.466;11.176;2023-03-01T16:52:21;5.90;1.00
4699;DHT22;33708;49.466;11.176;2023-03-01T16:54:47;5.90;1.00
4699;DHT22;33708;49.466;11.176;2023-03-01T16:57:13;5.80;1.00
4699;DHT22;33708;49.466;11.176;2023-03-01T16:59:38;5.80;1.00
4699;DHT22;33708;49.466;11.176;2023-03-01T17:02:04;5.70;1.00
4699;DHT22;33708;49.466;11.176;2023-03-01T17:04:32;5.70;1.00
4699;DHT22;33708;49.466;11.176;2023-03-01T17:06:57;5.70;1.00
4699;DHT22;33708;49.466;11.176;2023-03-01T17:09:23;5.80;1.00
4699;DHT22;33708;49.466;11.176;2023-03-01T17:11:49;5.70;1.00
4699;DHT22;33708;49.466;11.176;2023-03-01T17:14:15;5.50;1.00
4699;DHT22;33708;49.466;11.176;2023-03-01T17:16:42;5.50;1.00
4699;DHT22;33708;49.466;11.176;2023-03-01T17:19:09;5.40;1.00
4699;DHT22;33708;49.466;11.176;2023-03-01T17:21:35;5.40;1.00
4699;DHT22;33708;49.466;11.176;2023-03-01T17:24:02;5.20;1.00
4699;DHT22;33708;49.466;11.176;2023-03-01T17:26:28;5.10;1.00
4699;DHT22;33708;49.466;11.176;2023-03-01T17:28:55;5.20;1.00
4699;DHT22;33708;49.466;11.176;2023-03-01T17:31:21;5.10;1.00
4699;DHT22;33708;49.466;11.176;2023-03-01T17:33:47;5.00;1.00
4699;DHT22;33708;49.466;11.176;2023-03-01T17:36:14;4.90;1.00
4699;DHT22;33708;49.466;11.176;2023-03-01T17:38:40;5.00;1.00
4699;DHT22;33708;49.466;11.176;2023-03-01T17:41:06;4.80;1.00
4699;DHT22;33708;49.466;11.176;2023-03-01T17:43:32;4.70;1.00
4699;DHT22;33708;49.466;11.176;2023-03-01T17:45:59;4.80;1.00
4699;DHT22;33708;49.466;11.176;2023-03-01T17:48:25;4.80;1.00
4699;DHT22;33708;49.466;11.176;2023-03-01T17:50:51;4.60;1.00
4699;DHT22;33708;49.466;11.176;2023-03-01T17:53:17;4.70;1.00
4699;DHT22;33708;49.466;11.176;2023-03-01T17:55:43;4.70;1.00